Time;durP1;ratioP1;P1;durP2;ratioP2;P2;SDS_P1;SDS_P2;PMS_P1;PMS_P2;Temp;Humidity;BMP_temperature;BMP_pressure;BME280_temperature;BME280_humidity;BME280_pressure;Samples;Min_cycle;Max_cycle;Signal;HPM_P1;HPM_P2
2021/12/07 00:00:45;;;;;;;38.97;21.38;;;;;;;0.36;91.28;100566.31;2001739;29;43142;-65
2021/12/07 00:01:48;;;;;;;35.90;20.42;;;;;;;0.37;91.36;100565.44;1993720;29;43570;-65
2021/12/07 00:02:51;;;;;;;29.42;18.70;;;;;;;0.40;91.17;100571.63;1993780;29;43051;-64
2021/12/07 00:03:54;;;;;;;35.17;21.40;;;;;;;0.37;91.25;100568.06;1985389;29;45637;-64
2021/12/07 00:04:56;;;;;;;34.25;20.88;;;;;;;0.38;91.51;100567.22;1986668;29;43318;-64
2021/12/07 00:05:58;;;;;;;33.72;20.10;;;;;;;0.40;91.32;100575.13;2001811;29;38178;-64
2021/12/07 00:07:00;;;;;;;34.97;19.65;;;;;;;0.41;91.46;100566.34;2002113;29;32750;-64
2021/12/07 00:08:03;;;;;;;29.30;19.17;;;;;;;0.44;91.24;100566.41;2001859;29;43183;-64
2021/12/07 00:09:10;;;;;;;35.47;20.00;;;;;;;0.43;91.34;100571.66;1992710;29;44329;-64
2021/12/07 00:10:15;;;;;;;31.67;19.40;;;;;;;0.42;91.06;100572.53;1994478;29;46606;-64
2021/12/07 00:11:28;;;;;;;30.73;18.55;;;;;;;0.42;91.42;100573.41;2001436;29;43449;-64
2021/12/07 00:12:35;;;;;;;37.25;20.35;;;;;;;0.40;91.50;100566.38;2001456;29;46426;-65
2021/12/07 00:13:39;;;;;;;35.45;20.70;;;;;;;0.42;91.34;100567.25;2001747;29;43518;-65
2021/12/07 00:14:43;;;;;;;31.15;20.42;;;;;;;0.43;91.36;100567.28;2001482;29;43499;-64
2021/12/07 00:15:48;;;;;;;32.70;20.08;;;;;;;0.47;90.71;100565.56;2001498;29;45923;-65
2021/12/07 00:16:54;;;;;;;33.47;20.67;;;;;;;0.47;90.72;100562.94;2001463;29;44290;-64
2021/12/07 00:17:57;;;;;;;31.70;19.50;;;;;;;0.49;91.09;100559.44;2001745;29;42583;-64
2021/12/07 00:18:58;;;;;;;33.15;20.38;;;;;;;0.49;91.10;100558.56;2001499;29;44153;-65
2021/12/07 00:20:09;;;;;;;33.50;20.33;;;;;;;0.49;91.10;100555.94;2001483;29;44001;-64
2021/12/07 00:21:11;;;;;;;33.75;19.88;;;;;;;0.47;91.06;100548.00;2001991;29;32566;-64
2021/12/07 00:22:13;;;;;;;31.52;19.88;;;;;;;0.48;91.05;100556.78;2001478;29;45471;-64
2021/12/07 00:23:16;;;;;;;33.00;21.05;;;;;;;0.48;91.15;100549.75;2001715;29;46698;-65
2021/12/07 00:24:17;;;;;;;31.50;19.33;;;;;;;0.50;90.89;100553.31;2001834;29;31934;-65
2021/12/07 00:25:22;;;;;;;33.03;19.88;;;;;;;0.53;90.75;100549.81;2001255;29;45658;-65
2021/12/07 00:26:24;;;;;;;32.92;18.70;;;;;;;0.54;90.88;100556.88;2001326;29;46044;-64
2021/12/07 00:27:28;;;;;;;31.40;19.35;;;;;;;0.53;90.96;100555.97;1993109;29;45372;-64
2021/12/07 00:28:31;;;;;;;31.48;18.63;;;;;;;0.52;90.68;100554.22;1993700;29;45304;-64
2021/12/07 00:29:32;;;;;;;33.38;20.50;;;;;;;0.54;91.27;100546.34;2002188;29;28163;-64
2021/12/07 00:30:36;;;;;;;31.02;19.77;;;;;;;0.53;90.89;100550.69;1993515;29;44327;-65
2021/12/07 00:31:50;;;;;;;31.08;19.27;;;;;;;0.55;90.47;100548.97;1993764;29;44409;-64
2021/12/07 00:33:07;;;;;;;31.58;19.13;;;;;;;0.57;90.65;100547.25;2001818;29;42192;-64
2021/12/07 00:35:37;;;;;;;29.38;18.65;;;;;;;0.61;90.61;100542.91;1977461;29;46102;-65
2021/12/07 00:36:44;;;;;;;33.17;20.33;;;;;;;0.63;89.93;100550.81;1995771;29;45803;-64
2021/12/07 00:37:52;;;;;;;30.40;18.83;;;;;;;0.60;90.34;100541.13;2001265;29;46301;-64
2021/12/07 00:38:56;;;;;;;33.80;20.13;;;;;;;0.60;90.47;100549.03;2001253;29;44831;-65
2021/12/07 00:39:59;;;;;;;30.33;19.15;;;;;;;0.62;90.84;100549.06;2001415;29;45687;-63
2021/12/07 00:41:02;;;;;;;31.00;19.67;;;;;;;0.62;90.60;100543.78;1993172;29;43681;-64
2021/12/07 00:42:04;;;;;;;30.98;20.45;;;;;;;0.60;90.64;100549.03;1994486;29;20036;-64
2021/12/07 00:43:06;;;;;;;30.45;19.33;;;;;;;0.60;90.85;100546.41;2000767;29;45289;-64
2021/12/07 00:44:09;;;;;;;30.25;18.95;;;;;;;0.59;90.81;100541.97;1993999;29;20081;-65
2021/12/07 00:45:15;;;;;;;32.55;20.08;;;;;;;0.61;90.90;100547.28;1985778;29;44105;-65
2021/12/07 00:46:19;;;;;;;30.58;19.30;;;;;;;0.61;90.69;100547.28;1986683;29;29257;-64
2021/12/07 00:47:20;;;;;;;31.23;20.02;;;;;;;0.63;90.27;100543.81;1985945;29;45462;-64
2021/12/07 00:48:25;;;;;;;33.45;20.20;;;;;;;0.62;90.51;100539.38;1993148;29;46448;-64
2021/12/07 00:49:26;;;;;;;32.35;20.13;;;;;;;0.64;90.66;100539.41;1985467;29;43368;-64
2021/12/07 00:50:34;;;;;;;30.58;19.60;;;;;;;0.66;90.47;100546.47;1986155;29;45120;-64
2021/12/07 00:51:37;;;;;;;29.83;19.58;;;;;;;0.65;90.75;100541.19;2002612;29;20106;-64
2021/12/07 00:52:42;;;;;;;30.65;18.83;;;;;;;0.66;90.69;100545.59;1993738;29;20046;-64
2021/12/07 00:53:44;;;;;;;27.75;18.70;;;;;;;0.66;90.62;100541.19;1994000;29;20043;-64
2021/12/07 00:54:46;;;;;;;30.67;19.27;;;;;;;0.66;90.22;100537.69;2001619;29;23415;-65
2021/12/07 00:55:53;;;;;;;31.55;20.15;;;;;;;0.71;90.04;100539.50;2001866;29;31171;-64
2021/12/07 00:56:55;;;;;;;26.77;18.70;;;;;;;0.71;90.05;100538.63;1993861;29;20046;-64
2021/12/07 00:58:00;;;;;;;30.20;18.67;;;;;;;0.70;90.34;100542.09;1994148;29;20047;-65
2021/12/07 00:59:03;;;;;;;29.23;18.67;;;;;;;0.69;90.23;100551.75;1993668;29;21033;-64
2021/12/07 01:00:11;;;;;;;30.63;19.00;;;;;;;0.70;90.22;100553.53;1993720;29;20139;-64
2021/12/07 01:01:18;;;;;;;26.70;18.13;;;;;;;0.71;90.31;100550.03;1986763;29;32776;-64
2021/12/07 01:02:19;;;;;;;29.42;19.33;;;;;;;0.74;89.82;100547.44;1993951;29;37473;-64
2021/12/07 01:03:23;;;;;;;31.27;19.88;;;;;;;0.73;89.90;100548.28;2002040;29;20057;-64
2021/12/07 01:04:28;;;;;;;31.13;20.83;;;;;;;0.75;89.95;100546.59;1992568;29;45605;-64
2021/12/07 01:05:33;;;;;;;28.50;18.10;;;;;;;0.74;89.81;100549.19;1993470;29;43868;-64
2021/12/07 01:06:49;;;;;;;26.60;18.50;;;;;;;0.73;89.99;100545.66;1986027;29;28951;-64
2021/12/07 01:07:59;;;;;;;30.08;18.80;;;;;;;0.76;90.28;100542.19;1981861;29;44819;-64
2021/12/07 01:09:14;;;;;;;28.77;19.10;;;;;;;0.75;89.94;100546.59;1979355;29;34404;-65
2021/12/07 05:53:35;;;;;;;64.97;31.83;;;;;;;0.50;96.85;100686.75;1994321;29;20884;-64
2021/12/07 05:54:37;;;;;;;58.92;28.75;;;;;;;0.51;96.47;100693.81;1993311;29;44749;-63
2021/12/07 05:55:40;;;;;;;68.80;34.63;;;;;;;0.51;96.50;100696.44;1993822;29;33399;-64
2021/12/07 05:56:46;;;;;;;67.18;34.67;;;;;;;0.52;96.87;100690.28;1985661;29;34786;-63
2021/12/07 05:57:48;;;;;;;69.53;36.78;;;;;;;0.51;96.61;100693.81;1985438;29;43927;-64
2021/12/07 05:58:55;;;;;;;63.80;32.10;;;;;;;0.53;96.77;100692.06;1986681;29;20892;-63
2021/12/07 05:59:56;;;;;;;70.70;34.78;;;;;;;0.53;96.57;100692.06;1993379;29;43518;-63
2021/12/07 06:00:58;;;;;;;66.10;34.30;;;;;;;0.52;96.66;100691.19;1993648;29;43092;-63
2021/12/07 06:02:01;;;;;;;75.28;36.65;;;;;;;0.53;96.82;100694.69;1993408;29;45549;-63
2021/12/07 06:03:09;;;;;;;71.53;35.13;;;;;;;0.53;96.80;100686.81;1993411;29;42275;-63
2021/12/07 06:04:11;;;;;;;62.15;33.90;;;;;;;0.54;96.55;100688.59;1993224;29;44168;-63
2021/12/07 06:05:12;;;;;;;69.45;33.33;;;;;;;0.54;96.79;100696.50;1993299;29;45836;-63
2021/12/07 06:06:14;;;;;;;68.13;35.15;;;;;;;0.55;96.75;100696.47;1992864;29;45408;-63
2021/12/07 06:07:16;;;;;;;69.20;36.85;;;;;;;0.54;96.88;100694.72;1993450;29;33130;-65
2021/12/07 06:08:18;;;;;;;73.38;36.13;;;;;;;0.54;96.67;100700.00;1993366;29;42335;-62
2021/12/07 06:09:19;;;;;;;69.28;35.92;;;;;;;0.55;96.52;100701.75;1993354;29;45535;-62
2021/12/07 06:10:22;;;;;;;63.13;33.30;;;;;;;0.57;96.75;100704.41;1993383;29;43867;-65
2021/12/07 06:11:24;;;;;;;61.83;31.42;;;;;;;0.57;96.44;100705.31;1985095;29;46823;-63
2021/12/07 06:12:26;;;;;;;65.65;34.13;;;;;;;0.56;96.46;100707.94;1985723;29;36808;-63
2021/12/07 06:13:27;;;;;;;71.40;36.95;;;;;;;0.56;96.72;100711.44;1993379;29;43596;-65
2021/12/07 06:14:33;;;;;;;64.15;34.15;;;;;;;0.57;97.13;100712.31;1993206;29;43098;-62
2021/12/07 06:15:38;;;;;;;60.72;31.17;;;;;;;0.58;96.78;100716.72;1993622;29;37717;-61
2021/12/07 06:16:40;;;;;;;69.25;34.30;;;;;;;0.57;96.91;100715.84;1993044;29;45303;-62
2021/12/07 06:17:41;;;;;;;70.80;35.78;;;;;;;0.60;96.67;100715.00;1993407;29;45104;-63
2021/12/07 06:18:44;;;;;;;67.68;34.33;;;;;;;0.60;96.74;100719.38;1992987;29;42501;-63
2021/12/07 06:19:45;;;;;;;65.18;33.85;;;;;;;0.60;96.60;100717.63;1992989;29;45292;-63
2021/12/07 06:20:47;;;;;;;65.78;33.97;;;;;;;0.61;96.66;100719.41;1993067;29;45657;-63
2021/12/07 06:21:49;;;;;;;69.32;35.22;;;;;;;0.61;96.42;100722.06;1993400;29;45452;-63
2021/12/07 06:22:51;;;;;;;67.30;35.50;;;;;;;0.62;96.70;100718.53;1992686;29;47428;-63
2021/12/07 06:23:53;;;;;;;67.78;34.28;;;;;;;0.63;96.61;100724.69;1993739;29;42169;-63
2021/12/07 06:24:55;;;;;;;63.92;33.85;;;;;;;0.63;96.46;100733.50;1993044;29;45725;-63
2021/12/07 06:25:58;;;;;;;62.58;32.97;;;;;;;0.63;96.47;100725.59;1994270;29;20115;-63
2021/12/07 06:27:00;;;;;;;62.80;33.38;;;;;;;0.64;96.88;100731.72;1993966;29;26241;-63
2021/12/07 06:28:02;;;;;;;66.22;34.85;;;;;;;0.64;96.64;100731.72;1993239;29;43061;-63
2021/12/07 06:29:04;;;;;;;65.18;34.13;;;;;;;0.64;96.30;100727.34;1993109;29;44399;-63
2021/12/07 06:30:08;;;;;;;70.20;36.22;;;;;;;0.65;96.56;100734.41;1994891;29;35617;-63
2021/12/07 06:31:09;;;;;;;61.45;33.00;;;;;;;0.65;96.58;100731.75;1992519;29;45320;-63
2021/12/07 06:32:11;;;;;;;64.68;33.15;;;;;;;0.65;96.69;100742.31;1993193;29;42721;-63
2021/12/07 06:33:16;;;;;;;71.13;36.85;;;;;;;0.66;96.64;100741.41;1993147;29;44132;-63
2021/12/07 06:34:20;;;;;;;68.65;35.97;;;;;;;0.67;96.58;100744.97;1992656;29;44437;-63
2021/12/07 06:35:25;;;;;;;68.53;35.97;;;;;;;0.66;96.72;100738.78;1992858;29;36457;-63
2021/12/07 06:36:27;;;;;;;67.35;37.33;;;;;;;0.68;96.83;100745.00;1992535;29;45356;-63
2021/12/07 06:37:29;;;;;;;66.90;36.13;;;;;;;0.69;96.40;100738.84;1992520;29;43861;-64
2021/12/07 06:38:33;;;;;;;72.90;37.92;;;;;;;0.69;96.55;100745.88;1993506;29;33377;-63
2021/12/07 06:39:35;;;;;;;66.25;35.53;;;;;;;0.69;96.64;100741.47;1992683;29;43706;-65
2021/12/07 06:40:38;;;;;;;60.95;32.75;;;;;;;0.70;96.78;100748.53;1993451;29;20923;-63
2021/12/07 06:41:39;;;;;;;68.63;35.72;;;;;;;0.71;96.86;100744.13;1993271;29;46308;-62
2021/12/07 06:42:43;;;;;;;62.72;33.20;;;;;;;0.71;96.99;100739.72;1992845;29;42237;-63
2021/12/07 06:43:49;;;;;;;67.57;34.80;;;;;;;0.72;97.01;100744.16;1994056;29;20089;-62
2021/12/07 06:44:50;;;;;;;57.33;31.17;;;;;;;0.73;96.59;100743.28;1993031;29;45832;-64
2021/12/07 06:45:55;;;;;;;59.47;32.78;;;;;;;0.74;96.95;100741.56;1993566;29;43896;-62
2021/12/07 06:46:56;;;;;;;65.10;33.75;;;;;;;0.73;96.68;100734.50;1984828;29;46950;-63
2021/12/07 06:47:59;;;;;;;62.55;33.97;;;;;;;0.73;96.76;100742.41;1978572;29;20048;-63
2021/12/07 06:49:01;;;;;;;70.53;36.38;;;;;;;0.73;96.41;100738.00;1989546;29;44445;-63
2021/12/07 06:50:06;;;;;;;59.72;31.00;;;;;;;0.73;96.32;100732.72;2000401;29;45205;-63
2021/12/07 06:51:08;;;;;;;62.45;33.42;;;;;;;0.74;96.75;100744.19;2000899;29;42154;-63
2021/12/07 06:52:10;;;;;;;63.78;33.33;;;;;;;0.75;96.64;100738.94;2000778;29;43086;-63
2021/12/07 06:53:12;;;;;;;62.67;33.17;;;;;;;0.75;96.48;100740.66;2000686;29;44355;-63
2021/12/07 06:54:14;;;;;;;63.90;31.58;;;;;;;0.75;96.50;100741.56;2000472;29;45295;-63
2021/12/07 06:55:15;;;;;;;72.28;35.22;;;;;;;0.75;96.73;100746.84;2000670;29;43996;-63
2021/12/07 06:56:19;;;;;;;64.95;35.47;;;;;;;0.76;96.89;100745.09;2001082;29;29851;-63
2021/12/07 06:57:23;;;;;;;67.28;35.13;;;;;;;0.75;96.55;100752.13;2001245;29;44414;-62
2021/12/07 06:58:25;;;;;;;64.90;33.65;;;;;;;0.76;96.73;100745.97;1992645;29;44341;-63
2021/12/07 06:59:26;;;;;;;59.67;32.95;;;;;;;0.78;96.67;100745.09;1993161;29;44120;-63
2021/12/07 07:00:28;;;;;;;68.05;35.17;;;;;;;0.78;96.77;100740.72;2002197;29;44961;-63
2021/12/07 07:01:33;;;;;;;65.47;33.70;;;;;;;0.79;96.80;100742.50;2001020;29;36257;-63
2021/12/07 07:02:35;;;;;;;65.47;34.78;;;;;;;0.80;96.47;100746.00;2000667;29;44322;-63
2021/12/07 07:03:38;;;;;;;67.95;34.13;;;;;;;0.82;97.04;100746.91;2000889;29;44934;-62
2021/12/07 07:04:40;;;;;;;70.57;36.90;;;;;;;0.81;97.16;100750.41;2000303;29;44322;-62
2021/12/07 07:05:44;;;;;;;62.42;32.53;;;;;;;0.81;96.70;100753.94;2000851;29;44934;-65
2021/12/07 07:06:47;;;;;;;62.83;33.33;;;;;;;0.82;96.35;100747.78;2000897;29;39917;-63
2021/12/07 07:07:49;;;;;;;66.93;33.20;;;;;;;0.82;96.67;100741.63;2000802;29;45797;-65
2021/12/07 07:08:51;;;;;;;62.08;33.65;;;;;;;0.83;96.48;100744.31;1992903;29;33996;-63
2021/12/07 07:09:53;;;;;;;61.85;33.15;;;;;;;0.84;97.06;100755.72;1992742;29;43478;-63
2021/12/07 07:10:54;;;;;;;64.53;33.28;;;;;;;0.85;96.69;100765.41;2000483;29;44302;-65
2021/12/07 07:11:57;;;;;;;63.70;33.55;;;;;;;0.85;96.64;100758.38;2001613;29;20054;-62
2021/12/07 07:12:59;;;;;;;57.13;31.85;;;;;;;0.85;96.39;100762.78;1991820;29;45583;-63
2021/12/07 07:14:02;;;;;;;68.00;35.47;;;;;;;0.86;96.62;100756.63;1991954;29;45354;-62
2021/12/07 07:15:07;;;;;;;69.47;34.75;;;;;;;0.87;96.47;100759.28;1992096;29;43357;-63
2021/12/07 07:16:08;;;;;;;66.35;31.95;;;;;;;0.89;97.00;100754.03;1992727;29;45623;-62
2021/12/07 07:17:10;;;;;;;56.38;30.92;;;;;;;0.89;96.59;100759.31;2000647;29;45058;-64
2021/12/07 07:18:16;;;;;;;59.53;31.58;;;;;;;0.90;96.52;100761.09;2001418;29;44489;-63
2021/12/07 07:19:17;;;;;;;65.38;32.58;;;;;;;0.91;96.24;100755.81;2001942;29;46581;-63
2021/12/07 07:20:19;;;;;;;65.20;35.42;;;;;;;0.91;96.74;100749.66;2001466;29;43882;-62
2021/12/07 07:21:22;;;;;;;68.93;34.88;;;;;;;0.91;96.96;100752.31;2002000;29;44032;-63
2021/12/07 07:22:24;;;;;;;61.45;32.72;;;;;;;0.93;96.82;100755.84;2000493;29;32890;-63
2021/12/07 07:23:26;;;;;;;60.55;33.97;;;;;;;0.92;96.39;100754.09;2002027;29;43285;-63
2021/12/07 07:24:29;;;;;;;66.57;33.55;;;;;;;0.94;96.75;100760.25;2001372;29;44926;-63
2021/12/07 07:25:32;;;;;;;60.08;32.72;;;;;;;0.93;96.79;100761.13;2002016;29;42185;-63
2021/12/07 07:26:34;;;;;;;60.50;33.17;;;;;;;0.94;96.51;100757.63;2001928;29;27353;-63
2021/12/07 07:27:36;;;;;;;56.53;30.38;;;;;;;0.95;96.55;100756.75;2002178;29;34451;-63
2021/12/07 07:28:38;;;;;;;61.40;33.17;;;;;;;0.96;96.85;100761.16;1993319;29;44042;-64
2021/12/07 07:29:40;;;;;;;66.78;34.67;;;;;;;0.98;96.78;100767.34;1993987;29;46618;-63
2021/12/07 07:30:41;;;;;;;63.38;34.70;;;;;;;0.98;96.38;100767.34;2002540;29;29961;-63
2021/12/07 07:31:43;;;;;;;63.05;32.88;;;;;;;0.98;96.86;100774.38;2001936;29;44232;-63
2021/12/07 07:32:46;;;;;;;62.05;32.28;;;;;;;1.00;96.70;100772.63;2001564;29;46469;-63
2021/12/07 07:33:51;;;;;;;66.10;35.33;;;;;;;1.00;96.69;100770.88;2002643;29;20058;-63
2021/12/07 07:34:55;;;;;;;63.90;34.92;;;;;;;1.01;96.92;100777.94;2001495;29;44080;-63
2021/12/07 07:35:57;;;;;;;61.22;33.17;;;;;;;1.02;96.65;100777.03;1994053;29;34158;-65
2021/12/07 07:37:00;;;;;;;52.10;29.73;;;;;;;1.04;96.53;100779.72;1995531;29;20072;-65
2021/12/07 07:38:02;;;;;;;57.42;31.80;;;;;;;1.04;96.50;100777.06;2001601;29;44956;-64
2021/12/07 07:39:04;;;;;;;53.90;29.42;;;;;;;1.04;96.89;100780.63;2001486;29;42438;-65
2021/12/07 07:40:13;;;;;;;62.33;33.22;;;;;;;1.04;96.82;100785.88;2001783;29;45385;-63
2021/12/07 07:41:15;;;;;;;59.55;32.25;;;;;;;1.06;96.65;100783.25;1993926;29;40383;-65
2021/12/07 07:42:17;;;;;;;53.58;30.30;;;;;;;1.07;96.51;100785.91;1994419;29;44025;-63
2021/12/07 07:43:29;;;;;;;58.80;33.22;;;;;;;1.09;96.57;100780.66;1994362;29;20051;-63
2021/12/07 07:45:00;;;;;;;62.85;31.08;;;;;;;1.09;96.82;100789.44;1985811;29;20055;-63
2021/12/07 07:46:02;;;;;;;57.45;31.30;;;;;;;1.11;96.73;100785.09;1998794;29;20853;-65
2021/12/07 07:47:04;;;;;;;60.70;32.75;;;;;;;1.11;96.56;100789.47;2001815;29;46114;-66
2021/12/07 07:48:07;;;;;;;56.33;29.50;;;;;;;1.13;96.57;100791.28;2002542;29;20107;-65
2021/12/07 07:49:09;;;;;;;54.33;31.00;;;;;;;1.14;96.45;100789.53;2001241;29;46335;-63
2021/12/07 07:50:13;;;;;;;58.25;30.95;;;;;;;1.14;96.29;100793.03;2001439;29;42211;-65
2021/12/07 07:51:15;;;;;;;55.65;31.25;;;;;;;1.16;96.19;100792.19;2002400;29;31360;-65
2021/12/07 07:52:19;;;;;;;50.38;28.65;;;;;;;1.17;97.00;100793.94;2001565;29;44615;-65
2021/12/07 07:53:21;;;;;;;55.50;30.77;;;;;;;1.18;96.35;100796.59;2001826;29;45533;-64
2021/12/07 07:54:23;;;;;;;52.85;30.27;;;;;;;1.21;96.56;100799.28;2002009;29;20050;-65
2021/12/07 07:55:25;;;;;;;52.35;29.20;;;;;;;1.20;96.66;100802.78;2001812;29;44426;-64
2021/12/07 07:56:28;;;;;;;48.88;28.63;;;;;;;1.23;96.01;100801.94;2001643;29;45676;-65
2021/12/07 07:57:30;;;;;;;52.78;29.42;;;;;;;1.24;96.64;100801.06;2001706;29;46516;-63
2021/12/07 07:58:34;;;;;;;54.10;30.45;;;;;;;1.25;96.46;100797.56;2001717;29;43775;-62
2021/12/07 07:59:38;;;;;;;53.70;30.08;;;;;;;1.27;96.53;100799.34;2002028;29;33565;-60
2021/12/07 08:00:42;;;;;;;52.67;27.90;;;;;;;1.39;96.93;100797.75;2000015;29;44807;-71
2021/12/07 08:01:44;;;;;;;49.17;25.65;;;;;;;1.47;97.30;100794.34;1988717;29;44137;-60
2021/12/07 08:02:49;;;;;;;49.42;27.23;;;;;;;1.48;96.81;100801.38;1996937;29;39877;-60
2021/12/07 08:03:51;;;;;;;49.95;28.80;;;;;;;1.53;96.20;100802.31;2009263;29;44061;-61
2021/12/07 08:04:55;;;;;;;48.03;26.42;;;;;;;1.60;96.11;100799.72;2008845;29;45816;-63
2021/12/07 08:05:57;;;;;;;46.20;27.42;;;;;;;1.59;96.36;100805.91;2009118;29;44719;-63
2021/12/07 08:07:04;;;;;;;42.53;26.73;;;;;;;1.60;95.47;100807.66;2001780;29;20863;-63
2021/12/07 08:08:06;;;;;;;42.15;25.60;;;;;;;1.58;95.14;100799.75;2001323;29;45248;-63
2021/12/07 08:09:08;;;;;;;37.10;24.23;;;;;;;1.59;94.98;100800.63;2009240;29;43558;-63
2021/12/07 08:10:10;;;;;;;37.88;23.70;;;;;;;1.58;95.46;100797.09;2009029;29;45828;-63
2021/12/07 08:11:13;;;;;;;36.45;23.25;;;;;;;1.59;95.38;100797.97;2008943;29;46562;-63
2021/12/07 08:12:15;;;;;;;38.10;24.50;;;;;;;1.54;94.84;100803.19;2009705;29;29846;-63
2021/12/07 08:13:18;;;;;;;38.10;23.85;;;;;;;1.56;95.53;100816.41;2008904;29;45174;-63
2021/12/07 08:14:20;;;;;;;36.88;23.50;;;;;;;1.53;95.43;100807.59;2000871;29;42485;-63
2021/12/07 08:15:25;;;;;;;38.60;24.30;;;;;;;1.52;95.49;100797.88;1996777;29;37089;-63
2021/12/07 08:16:28;;;;;;;39.28;23.63;;;;;;;1.51;95.59;100804.06;2001361;29;45273;-64
2021/12/07 08:17:29;;;;;;;36.58;23.67;;;;;;;1.52;95.21;100805.81;2001905;29;43683;-63
2021/12/07 08:18:31;;;;;;;40.35;24.48;;;;;;;1.51;95.41;100805.81;1993206;29;44518;-63
2021/12/07 08:19:36;;;;;;;40.28;23.90;;;;;;;1.51;95.00;100809.34;1993393;29;45993;-64
2021/12/07 08:20:39;;;;;;;37.58;22.55;;;;;;;1.53;95.55;100804.06;2001072;29;33358;-64
2021/12/07 08:21:41;;;;;;;41.03;23.05;;;;;;;1.52;95.50;100811.09;2000929;29;46512;-64
2021/12/07 08:22:45;;;;;;;34.38;21.83;;;;;;;1.53;95.47;100818.16;2001447;29;42579;-64
2021/12/07 08:23:49;;;;;;;39.85;24.23;;;;;;;1.54;95.58;100819.03;2001364;29;45327;-69
2021/12/07 08:24:51;;;;;;;39.50;23.52;;;;;;;1.54;95.55;100819.03;2001641;29;45819;-66
2021/12/07 08:25:53;;;;;;;31.95;21.10;;;;;;;1.55;95.38;100815.53;2001530;29;29814;-69
2021/12/07 08:26:55;;;;;;;38.17;23.08;;;;;;;1.55;94.99;100817.28;1993311;29;44972;-63
2021/12/07 08:28:00;;;;;;;38.22;23.45;;;;;;;1.55;95.35;100814.66;1993709;29;42511;-64
2021/12/07 08:29:04;;;;;;;38.53;23.33;;;;;;;1.55;95.70;100822.56;2001717;29;34448;-69
2021/12/07 08:30:09;;;;;;;41.63;24.13;;;;;;;1.55;95.22;100810.25;2000592;29;45970;-64
2021/12/07 08:31:11;;;;;;;38.10;22.70;;;;;;;1.55;95.56;100814.66;2002227;29;23205;-64
2021/12/07 08:32:13;;;;;;;35.85;22.67;;;;;;;1.54;95.01;100813.75;2001309;29;41657;-64
2021/12/07 08:33:16;;;;;;;38.78;22.58;;;;;;;1.57;95.18;100812.91;2001729;29;43591;-64
2021/12/07 08:34:17;;;;;;;37.58;23.15;;;;;;;1.62;95.06;100812.09;1993090;29;33889;-64
2021/12/07 08:35:20;;;;;;;41.85;23.15;;;;;;;1.64;95.21;100814.75;1993145;29;44619;-63
2021/12/07 08:36:22;;;;;;;37.15;22.90;;;;;;;1.66;95.21;100813.00;2001405;29;44063;-64
2021/12/07 08:37:26;;;;;;;40.42;24.20;;;;;;;1.65;95.04;100821.78;2001550;29;36098;-64
2021/12/07 08:38:29;;;;;;;36.58;22.88;;;;;;;1.66;95.44;100831.50;2001839;29;43959;-64
2021/12/07 08:39:34;;;;;;;36.92;21.27;;;;;;;1.71;95.19;100827.16;2001501;29;44717;-64
2021/12/07 08:40:39;;;;;;;42.58;24.38;;;;;;;1.69;95.05;100828.88;2001430;29;46277;-68
2021/12/07 08:41:41;;;;;;;41.35;23.42;;;;;;;1.67;94.73;100830.59;2001251;29;43622;-65
2021/12/07 08:42:43;;;;;;;35.72;22.13;;;;;;;1.65;95.00;100822.69;2001615;29;33806;-72
2021/12/07 08:43:45;;;;;;;35.95;23.38;;;;;;;1.65;95.17;100837.63;1993111;29;45830;-65
2021/12/07 08:44:49;;;;;;;36.17;22.98;;;;;;;1.66;94.88;100823.56;1993279;29;45612;-65
2021/12/07 08:45:53;;;;;;;40.58;23.83;;;;;;;1.62;95.38;100833.22;2001665;29;35925;-64
2021/12/07 08:46:57;;;;;;;38.70;23.27;;;;;;;1.59;95.28;100827.00;2001432;29;43993;-64
2021/12/07 08:48:00;;;;;;;39.10;22.98;;;;;;;1.61;94.72;100820.88;2000971;29;45478;-65
2021/12/07 08:49:04;;;;;;;36.88;22.98;;;;;;;1.62;95.17;100824.41;2001527;29;36341;-65
2021/12/07 08:50:18;;;;;;;37.40;22.85;;;;;;;1.62;95.33;100827.06;1993062;29;45531;-64
2021/12/07 08:51:20;;;;;;;36.55;21.15;;;;;;;1.63;95.11;100834.09;1995099;29;44927;-65
2021/12/07 08:52:22;;;;;;;39.72;23.42;;;;;;;1.63;95.11;100834.97;2001371;29;43750;-65
2021/12/07 08:53:27;;;;;;;36.42;22.33;;;;;;;1.66;95.28;100834.13;2001059;29;44369;-65
2021/12/07 08:59:36;;;;;;;38.05;23.20;;;;;;;1.68;95.29;100841.19;1985406;29;44734;-64
2021/12/07 09:00:10;;;;;;;37.53;22.52;;;;;;;1.75;95.54;100841.28;1994006;29;20104;-65
2021/12/07 09:01:13;;;;;;;41.33;24.13;;;;;;;1.75;95.26;100831.59;1996101;29;45863;-65
2021/12/07 09:02:22;;;;;;;38.78;22.92;;;;;;;1.79;95.33;100830.75;2002479;29;20050;-65
2021/12/07 09:03:24;;;;;;;45.47;24.50;;;;;;;1.80;94.98;100831.66;2000825;29;45793;-66
2021/12/07 09:04:28;;;;;;;37.70;22.27;;;;;;;1.82;94.74;100836.06;2000783;29;46071;-67
2021/12/07 09:05:29;;;;;;;36.42;21.67;;;;;;;1.84;94.91;100839.59;2000853;29;36511;-66
2021/12/07 09:06:34;;;;;;;41.53;23.38;;;;;;;1.83;94.53;100844.84;2000992;29;46269;-64
2021/12/07 09:07:36;;;;;;;40.10;24.08;;;;;;;1.83;94.39;100851.06;1992293;29;42205;-63
2021/12/07 09:08:40;;;;;;;38.08;23.50;;;;;;;1.88;94.55;100845.81;1993732;29;37190;-65
2021/12/07 09:09:43;;;;;;;40.75;23.38;;;;;;;1.89;94.61;100850.22;2001165;29;44541;-64
2021/12/07 09:10:45;;;;;;;39.83;23.13;;;;;;;1.92;95.15;100845.00;2000952;29;43189;-64
2021/12/07 09:11:47;;;;;;;38.78;23.33;;;;;;;1.91;94.75;100841.44;2000955;29;44885;-67
2021/12/07 09:12:49;;;;;;;57.35;24.30;;;;;;;1.96;95.07;100840.63;2001134;29;43693;-66
2021/12/07 09:13:53;;;;;;;35.05;20.88;;;;;;;1.99;94.57;100828.34;2000966;29;33501;-63
2021/12/07 09:14:55;;;;;;;38.38;22.02;;;;;;;2.03;94.42;100832.78;2000881;29;44546;-64
2021/12/07 09:15:57;;;;;;;43.10;22.92;;;;;;;2.02;94.22;100816.91;2001055;29;44328;-64
2021/12/07 09:16:59;;;;;;;33.42;20.20;;;;;;;2.07;94.23;100824.00;1993413;29;33545;-63
2021/12/07 09:18:02;;;;;;;33.05;21.42;;;;;;;2.06;93.96;100824.91;1993286;29;41348;-66
2021/12/07 09:19:05;;;;;;;38.20;22.65;;;;;;;2.08;93.66;100812.59;1994019;29;20119;-65
2021/12/07 09:20:15;;;;;;;34.80;21.42;;;;;;;2.09;93.80;100818.75;1993052;29;43725;-66
2021/12/07 09:21:18;;;;;;;32.55;21.13;;;;;;;2.13;93.82;100815.25;2001243;29;44184;-65
2021/12/07 09:22:20;;;;;;;32.67;20.73;;;;;;;2.15;93.63;100825.84;2001710;29;46195;-70
2021/12/07 09:23:30;;;;;;;35.08;22.23;;;;;;;2.17;93.45;100821.44;1992821;29;43780;-65
2021/12/07 09:24:34;;;;;;;33.63;21.05;;;;;;;2.25;93.77;100825.94;1994345;29;45693;-67
2021/12/07 09:25:47;;;;;;;36.78;21.73;;;;;;;2.30;93.81;100828.63;2001566;29;46245;-66
2021/12/07 09:26:53;;;;;;;35.55;21.83;;;;;;;2.36;93.73;100822.50;2000815;29;43774;-66
2021/12/07 09:27:56;;;;;;;39.55;22.38;;;;;;;2.40;93.67;100814.59;2001128;29;35515;-66
2021/12/07 09:28:58;;;;;;;32.08;20.15;;;;;;;2.42;93.42;100812.91;1992880;29;45844;-68
2021/12/07 09:30:00;;;;;;;33.53;21.55;;;;;;;2.37;92.83;100809.31;1992614;29;46658;-71
2021/12/07 09:31:04;;;;;;;30.90;20.33;;;;;;;2.50;92.46;100807.66;2001019;29;36402;-68
2021/12/07 09:32:12;;;;;;;33.92;21.65;;;;;;;2.55;93.02;100813.88;1993750;29;20143;-67
2021/12/07 09:33:14;;;;;;;37.20;19.95;;;;;;;2.56;93.00;100809.47;1993815;29;44392;-66
2021/12/07 09:34:17;;;;;;;32.55;20.90;;;;;;;2.56;91.98;100801.53;2000988;29;34222;-64
2021/12/07 09:35:21;;;;;;;29.58;20.65;;;;;;;2.52;92.09;100808.56;1992375;29;45387;-65
2021/12/07 09:36:25;;;;;;;33.60;20.27;;;;;;;2.51;92.31;100812.06;1994200;29;46361;-66
2021/12/07 09:37:29;;;;;;;30.42;19.77;;;;;;;2.46;92.81;100804.09;1992814;29;44056;-66
2021/12/07 09:38:33;;;;;;;33.38;20.05;;;;;;;2.56;92.39;100812.09;1993166;29;44282;-66
2021/12/07 09:39:35;;;;;;;33.38;20.10;;;;;;;2.53;92.68;100815.63;2000947;29;46181;-66
2021/12/07 09:40:38;;;;;;;33.53;20.20;;;;;;;2.54;92.49;100814.72;2000841;29;45496;-65
2021/12/07 09:41:40;;;;;;;31.38;19.92;;;;;;;2.56;92.61;100812.97;2000945;29;46335;-67